sensor_id;sensor_type;location;lat;lon;timestamp;temperature;humidity
16437;DHT22;8328;52.206;21.006;2022-08-20T00:00:56;23.70;99.90
16437;DHT22;8328;52.206;21.006;2022-08-20T00:03:33;23.60;99.90
16437;DHT22;8328;52.206;21.006;2022-08-20T00:08:30;23.50;99.90
16437;DHT22;8328;52.206;21.006;2022-08-20T00:10:56;23.50;99.90
16437;DHT22;8328;52.206;21.006;2022-08-20T00:13:29;23.50;99.90
16437;DHT22;8328;52.206;21.006;2022-08-20T00:15:56;23.40;99.90
16437;DHT22;8328;52.206;21.006;2022-08-20T00:18:22;23.40;99.90
16437;DHT22;8328;52.206;21.006;2022-08-20T00:20:50;23.40;99.90
16437;DHT22;8328;52.206;21.006;2022-08-20T00:23:18;23.40;99.90
16437;DHT22;8328;52.206;21.006;2022-08-20T00:25:45;23.40;99.90
16437;DHT22;8328;52.206;21.006;2022-08-20T00:28:11;23.40;99.90
16437;DHT22;8328;52.206;21.006;2022-08-20T00:30:38;23.40;99.90
16437;DHT22;8328;52.206;21.006;2022-08-20T00:33:07;23.40;99.90
16437;DHT22;8328;52.206;21.006;2022-08-20T00:35:38;23.30;99.90
16437;DHT22;8328;52.206;21.006;2022-08-20T00:38:04;23.30;99.90
16437;DHT22;8328;52.206;21.006;2022-08-20T00:40:38;23.30;99.90
16437;DHT22;8328;52.206;21.006;2022-08-20T00:43:06;23.30;99.90
16437;DHT22;8328;52.206;21.006;2022-08-20T00:45:34;23.20;99.90
16437;DHT22;8328;52.206;21.006;2022-08-20T00:48:00;23.30;99.90
16437;DHT22;8328;52.206;21.006;2022-08-20T00:50:34;23.30;99.90
16437;DHT22;8328;52.206;21.006;2022-08-20T00:53:02;23.30;99.90
16437;DHT22;8328;52.206;21.006;2022-08-20T00:55:30;23.30;99.90
16437;DHT22;8328;52.206;21.006;2022-08-20T00:58:00;23.30;99.90
16437;DHT22;8328;52.206;21.006;2022-08-20T01:00:34;23.30;99.90
16437;DHT22;8328;52.206;21.006;2022-08-20T01:03:03;23.30;99.90
16437;DHT22;8328;52.206;21.006;2022-08-20T01:05:29;23.20;99.90
16437;DHT22;8328;52.206;21.006;2022-08-20T01:07:56;23.20;99.90
16437;DHT22;8328;52.206;21.006;2022-08-20T01:10:26;23.20;99.90
16437;DHT22;8328;52.206;21.006;2022-08-20T01:12:54;23.20;99.90
16437;DHT22;8328;52.206;21.006;2022-08-20T01:15:24;23.20;99.90
16437;DHT22;8328;52.206;21.006;2022-08-20T01:17:54;23.10;99.90
16437;DHT22;8328;52.206;21.006;2022-08-20T01:20:29;23.10;99.90
16437;DHT22;8328;52.206;21.006;2022-08-20T01:23:14;23.10;99.90
16437;DHT22;8328;52.206;21.006;2022-08-20T01:26:24;23.10;99.90
16437;DHT22;8328;52.206;21.006;2022-08-20T01:29:03;23.10;99.90
16437;DHT22;8328;52.206;21.006;2022-08-20T01:31:32;23.00;99.90
16437;DHT22;8328;52.206;21.006;2022-08-20T01:34:00;23.00;99.90
16437;DHT22;8328;52.206;21.006;2022-08-20T01:36:43;23.00;99.90
16437;DHT22;8328;52.206;21.006;2022-08-20T01:39:13;22.90;99.90
16437;DHT22;8328;52.206;21.006;2022-08-20T01:44:26;22.90;99.90
16437;DHT22;8328;52.206;21.006;2022-08-20T01:46:53;22.90;99.90
16437;DHT22;8328;52.206;21.006;2022-08-20T01:49:30;22.80;99.90
16437;DHT22;8328;52.206;21.006;2022-08-20T01:52:00;22.80;99.90
16437;DHT22;8328;52.206;21.006;2022-08-20T01:54:27;22.80;99.90
16437;DHT22;8328;52.206;21.006;2022-08-20T01:57:14;22.70;99.90
16437;DHT22;8328;52.206;21.006;2022-08-20T01:59:41;22.70;99.90
16437;DHT22;8328;52.206;21.006;2022-08-20T02:02:08;22.70;99.90
16437;DHT22;8328;52.206;21.006;2022-08-20T02:04:35;22.60;99.90
16437;DHT22;8328;52.206;21.006;2022-08-20T02:07:03;22.60;99.90
16437;DHT22;8328;52.206;21.006;2022-08-20T02:09:37;22.50;99.90
16437;DHT22;8328;52.206;21.006;2022-08-20T02:12:05;22.40;99.90
16437;DHT22;8328;52.206;21.006;2022-08-20T02:14:32;22.40;99.90
16437;DHT22;8328;52.206;21.006;2022-08-20T02:16:58;22.40;99.90
16437;DHT22;8328;52.206;21.006;2022-08-20T02:19:39;22.30;99.90
16437;DHT22;8328;52.206;21.006;2022-08-20T02:24:56;22.20;99.90
16437;DHT22;8328;52.206;21.006;2022-08-20T02:27:22;22.20;99.90
16437;DHT22;8328;52.206;21.006;2022-08-20T02:29:49;22.20;99.90
16437;DHT22;8328;52.206;21.006;2022-08-20T02:32:16;22.10;99.90
16437;DHT22;8328;52.206;21.006;2022-08-20T02:34:42;22.10;99.90
16437;DHT22;8328;52.206;21.006;2022-08-20T02:37:08;22.00;99.90
16437;DHT22;8328;52.206;21.006;2022-08-20T02:39:34;22.00;99.90
16437;DHT22;8328;52.206;21.006;2022-08-20T02:42:00;22.00;99.90
16437;DHT22;8328;52.206;21.006;2022-08-20T02:44:30;22.00;99.90
16437;DHT22;8328;52.206;21.006;2022-08-20T02:46:56;22.00;99.90
16437;DHT22;8328;52.206;21.006;2022-08-20T02:49:22;22.00;99.90
16437;DHT22;8328;52.206;21.006;2022-08-20T02:51:48;22.00;99.90
16437;DHT22;8328;52.206;21.006;2022-08-20T02:54:14;22.00;99.90
16437;DHT22;8328;52.206;21.006;2022-08-20T02:56:40;22.00;99.90
16437;DHT22;8328;52.206;21.006;2022-08-20T02:59:06;22.00;99.90
16437;DHT22;8328;52.206;21.006;2022-08-20T03:01:32;22.00;99.90
16437;DHT22;8328;52.206;21.006;2022-08-20T03:03:58;22.00;99.90
16437;DHT22;8328;52.206;21.006;2022-08-20T03:06:25;22.10;99.90
16437;DHT22;8328;52.206;21.006;2022-08-20T03:08:51;22.00;99.90
16437;DHT22;8328;52.206;21.006;2022-08-20T03:11:17;22.10;99.90
16437;DHT22;8328;52.206;21.006;2022-08-20T03:13:44;22.00;99.90
16437;DHT22;8328;52.206;21.006;2022-08-20T03:16:10;22.00;99.90
16437;DHT22;8328;52.206;21.006;2022-08-20T03:18:40;22.00;99.90
16437;DHT22;8328;52.206;21.006;2022-08-20T03:21:07;22.00;99.90
16437;DHT22;8328;52.206;21.006;2022-08-20T03:23:34;22.00;99.90
16437;DHT22;8328;52.206;21.006;2022-08-20T03:26:02;21.90;99.90
16437;DHT22;8328;52.206;21.006;2022-08-20T03:28:28;21.90;99.90
16437;DHT22;8328;52.206;21.006;2022-08-20T03:30:54;21.90;99.90
16437;DHT22;8328;52.206;21.006;2022-08-20T03:33:21;22.00;99.90
16437;DHT22;8328;52.206;21.006;2022-08-20T03:35:48;22.00;99.90
16437;DHT22;8328;52.206;21.006;2022-08-20T03:38:15;22.00;99.90
16437;DHT22;8328;52.206;21.006;2022-08-20T03:40:42;22.10;99.90
16437;DHT22;8328;52.206;21.006;2022-08-20T03:43:10;22.10;99.90
16437;DHT22;8328;52.206;21.006;2022-08-20T03:45:38;22.20;99.90
16437;DHT22;8328;52.206;21.006;2022-08-20T03:48:06;22.20;99.90
16437;DHT22;8328;52.206;21.006;2022-08-20T03:50:33;22.30;99.90
16437;DHT22;8328;52.206;21.006;2022-08-20T03:52:59;22.30;99.90
16437;DHT22;8328;52.206;21.006;2022-08-20T03:55:28;22.30;99.90
16437;DHT22;8328;52.206;21.006;2022-08-20T03:57:57;22.40;99.90
16437;DHT22;8328;52.206;21.006;2022-08-20T04:00:41;22.50;99.90
16437;DHT22;8328;52.206;21.006;2022-08-20T04:03:07;22.60;99.90
16437;DHT22;8328;52.206;21.006;2022-08-20T04:05:34;22.70;99.90
16437;DHT22;8328;52.206;21.006;2022-08-20T04:08:04;22.70;99.90
16437;DHT22;8328;52.206;21.006;2022-08-20T04:10:31;22.70;99.90
16437;DHT22;8328;52.206;21.006;2022-08-20T04:12:57;22.70;99.90
16437;DHT22;8328;52.206;21.006;2022-08-20T04:15:22;22.70;99.90
16437;DHT22;8328;52.206;21.006;2022-08-20T04:17:49;22.70;99.90
16437;DHT22;8328;52.206;21.006;2022-08-20T04:20:20;22.80;99.90
16437;DHT22;8328;52.206;21.006;2022-08-20T04:22:49;22.80;99.90
16437;DHT22;8328;52.206;21.006;2022-08-20T04:25:15;22.90;99.90
16437;DHT22;8328;52.206;21.006;2022-08-20T04:27:41;23.00;99.90
16437;DHT22;8328;52.206;21.006;2022-08-20T04:30:09;23.20;99.90
16437;DHT22;8328;52.206;21.006;2022-08-20T04:32:40;23.50;99.90
16437;DHT22;8328;52.206;21.006;2022-08-20T04:35:09;23.80;99.90
16437;DHT22;8328;52.206;21.006;2022-08-20T04:37:37;24.10;99.90
16437;DHT22;8328;52.206;21.006;2022-08-20T04:40:16;24.20;99.90
16437;DHT22;8328;52.206;21.006;2022-08-20T04:43:07;24.20;99.90
16437;DHT22;8328;52.206;21.006;2022-08-20T04:45:33;24.30;99.90
16437;DHT22;8328;52.206;21.006;2022-08-20T04:48:03;24.40;99.90
16437;DHT22;8328;52.206;21.006;2022-08-20T04:50:31;24.50;99.90
16437;DHT22;8328;52.206;21.006;2022-08-20T04:53:05;24.70;99.90
16437;DHT22;8328;52.206;21.006;2022-08-20T04:55:31;24.50;99.90
16437;DHT22;8328;52.206;21.006;2022-08-20T04:58:03;24.40;99.90
16437;DHT22;8328;52.206;21.006;2022-08-20T05:00:29;24.30;99.90
16437;DHT22;8328;52.206;21.006;2022-08-20T05:02:56;24.20;99.90
16437;DHT22;8328;52.206;21.006;2022-08-20T05:05:22;24.20;99.90
16437;DHT22;8328;52.206;21.006;2022-08-20T05:07:48;24.20;99.90
16437;DHT22;8328;52.206;21.006;2022-08-20T05:10:16;24.10;99.90
16437;DHT22;8328;52.206;21.006;2022-08-20T05:12:43;24.00;99.90
16437;DHT22;8328;52.206;21.006;2022-08-20T05:15:11;24.00;99.90
16437;DHT22;8328;52.206;21.006;2022-08-20T05:17:41;24.00;99.90
16437;DHT22;8328;52.206;21.006;2022-08-20T05:20:11;24.00;99.90
16437;DHT22;8328;52.206;21.006;2022-08-20T05:22:38;24.00;99.90
16437;DHT22;8328;52.206;21.006;2022-08-20T05:25:04;24.00;99.90
16437;DHT22;8328;52.206;21.006;2022-08-20T05:27:31;24.10;99.90
16437;DHT22;8328;52.206;21.006;2022-08-20T05:30:04;24.10;99.90
16437;DHT22;8328;52.206;21.006;2022-08-20T05:32:34;24.00;99.90
16437;DHT22;8328;52.206;21.006;2022-08-20T05:35:01;24.00;99.90
16437;DHT22;8328;52.206;21.006;2022-08-20T05:37:27;24.00;99.90
16437;DHT22;8328;52.206;21.006;2022-08-20T05:39:54;24.00;99.90
16437;DHT22;8328;52.206;21.006;2022-08-20T05:42:30;24.10;99.90
16437;DHT22;8328;52.206;21.006;2022-08-20T05:44:56;24.30;99.90
16437;DHT22;8328;52.206;21.006;2022-08-20T05:47:21;24.80;99.90
16437;DHT22;8328;52.206;21.006;2022-08-20T05:49:52;25.00;99.90
16437;DHT22;8328;52.206;21.006;2022-08-20T05:52:18;25.10;99.90
16437;DHT22;8328;52.206;21.006;2022-08-20T05:54:44;25.60;99.90
16437;DHT22;8328;52.206;21.006;2022-08-20T05:57:09;25.70;99.90
16437;DHT22;8328;52.206;21.006;2022-08-20T05:59:35;25.90;99.90
16437;DHT22;8328;52.206;21.006;2022-08-20T06:02:10;25.90;99.90
16437;DHT22;8328;52.206;21.006;2022-08-20T06:04:55;26.00;99.90
16437;DHT22;8328;52.206;21.006;2022-08-20T06:07:21;26.30;99.90
16437;DHT22;8328;52.206;21.006;2022-08-20T06:09:50;26.60;99.90
16437;DHT22;8328;52.206;21.006;2022-08-20T06:12:17;26.60;99.90
16437;DHT22;8328;52.206;21.006;2022-08-20T06:14:52;26.80;99.90
16437;DHT22;8328;52.206;21.006;2022-08-20T06:17:21;26.90;99.90
16437;DHT22;8328;52.206;21.006;2022-08-20T06:19:47;26.80;99.90
16437;DHT22;8328;52.206;21.006;2022-08-20T06:22:16;26.80;99.90
16437;DHT22;8328;52.206;21.006;2022-08-20T06:24:48;26.80;99.90
16437;DHT22;8328;52.206;21.006;2022-08-20T06:27:23;27.10;99.90
16437;DHT22;8328;52.206;21.006;2022-08-20T06:29:50;27.20;99.90
16437;DHT22;8328;52.206;21.006;2022-08-20T06:32:17;27.20;99.90
16437;DHT22;8328;52.206;21.006;2022-08-20T06:34:47;27.40;99.90
16437;DHT22;8328;52.206;21.006;2022-08-20T06:37:18;27.50;99.90
16437;DHT22;8328;52.206;21.006;2022-08-20T06:39:51;27.70;99.90
16437;DHT22;8328;52.206;21.006;2022-08-20T06:42:20;27.70;99.90
16437;DHT22;8328;52.206;21.006;2022-08-20T06:44:49;27.80;99.90
16437;DHT22;8328;52.206;21.006;2022-08-20T06:47:19;27.90;99.90
16437;DHT22;8328;52.206;21.006;2022-08-20T06:49:46;27.90;99.90
16437;DHT22;8328;52.206;21.006;2022-08-20T06:52:12;27.90;99.90
16437;DHT22;8328;52.206;21.006;2022-08-20T06:54:45;28.00;99.90
16437;DHT22;8328;52.206;21.006;2022-08-20T06:57:17;27.90;99.90
16437;DHT22;8328;52.206;21.006;2022-08-20T06:59:43;28.10;99.90
16437;DHT22;8328;52.206;21.006;2022-08-20T07:02:17;28.20;99.90
16437;DHT22;8328;52.206;21.006;2022-08-20T07:04:48;28.30;99.90
16437;DHT22;8328;52.206;21.006;2022-08-20T07:07:17;28.50;99.90
16437;DHT22;8328;52.206;21.006;2022-08-20T07:09:57;28.50;99.90
16437;DHT22;8328;52.206;21.006;2022-08-20T07:12:23;28.50;99.90
16437;DHT22;8328;52.206;21.006;2022-08-20T07:14:50;28.50;99.90
16437;DHT22;8328;52.206;21.006;2022-08-20T07:17:15;28.30;99.90
16437;DHT22;8328;52.206;21.006;2022-08-20T07:19:41;28.20;99.90
16437;DHT22;8328;52.206;21.006;2022-08-20T07:22:07;28.10;99.90
16437;DHT22;8328;52.206;21.006;2022-08-20T07:24:33;28.10;99.90
16437;DHT22;8328;52.206;21.006;2022-08-20T07:26:59;28.20;99.90
16437;DHT22;8328;52.206;21.006;2022-08-20T07:29:25;28.20;99.90
16437;DHT22;8328;52.206;21.006;2022-08-20T07:32:11;28.10;99.90
16437;DHT22;8328;52.206;21.006;2022-08-20T07:34:56;27.90;99.90
16437;DHT22;8328;52.206;21.006;2022-08-20T07:37:21;27.80;99.90
16437;DHT22;8328;52.206;21.006;2022-08-20T07:39:48;27.70;99.90
16437;DHT22;8328;52.206;21.006;2022-08-20T07:42:14;27.80;99.90
16437;DHT22;8328;52.206;21.006;2022-08-20T07:44:40;27.60;99.90
16437;DHT22;8328;52.206;21.006;2022-08-20T07:47:06;27.50;99.90
16437;DHT22;8328;52.206;21.006;2022-08-20T07:49:36;27.60;99.90
16437;DHT22;8328;52.206;21.006;2022-08-20T07:52:03;27.70;99.90
16437;DHT22;8328;52.206;21.006;2022-08-20T07:54:29;27.80;99.90
16437;DHT22;8328;52.206;21.006;2022-08-20T07:56:59;28.10;99.90
16437;DHT22;8328;52.206;21.006;2022-08-20T07:59:27;28.50;99.90
16437;DHT22;8328;52.206;21.006;2022-08-20T08:01:54;28.80;99.90
16437;DHT22;8328;52.206;21.006;2022-08-20T08:04:19;28.80;99.90
16437;DHT22;8328;52.206;21.006;2022-08-20T08:06:45;28.80;99.90
16437;DHT22;8328;52.206;21.006;2022-08-20T08:09:17;28.60;99.90
16437;DHT22;8328;52.206;21.006;2022-08-20T08:11:47;28.40;99.90
16437;DHT22;8328;52.206;21.006;2022-08-20T08:14:19;28.20;99.90
16437;DHT22;8328;52.206;21.006;2022-08-20T08:16:59;28.20;99.90
16437;DHT22;8328;52.206;21.006;2022-08-20T08:19:28;28.40;99.90
16437;DHT22;8328;52.206;21.006;2022-08-20T08:21:58;28.50;99.90
16437;DHT22;8328;52.206;21.006;2022-08-20T08:24:24;28.60;99.90
16437;DHT22;8328;52.206;21.006;2022-08-20T08:26:50;28.80;99.90
16437;DHT22;8328;52.206;21.006;2022-08-20T08:29:17;29.10;99.90
16437;DHT22;8328;52.206;21.006;2022-08-20T08:31:42;29.20;99.90
16437;DHT22;8328;52.206;21.006;2022-08-20T08:34:08;29.20;99.90
16437;DHT22;8328;52.206;21.006;2022-08-20T08:36:34;29.40;99.90
16437;DHT22;8328;52.206;21.006;2022-08-20T08:39:00;29.50;99.90
16437;DHT22;8328;52.206;21.006;2022-08-20T08:41:33;29.50;99.90
16437;DHT22;8328;52.206;21.006;2022-08-20T08:44:11;29.50;99.90
16437;DHT22;8328;52.206;21.006;2022-08-20T08:46:41;29.50;99.90
16437;DHT22;8328;52.206;21.006;2022-08-20T08:49:11;29.70;99.90
16437;DHT22;8328;52.206;21.006;2022-08-20T08:52:08;29.70;99.90
16437;DHT22;8328;52.206;21.006;2022-08-20T08:54:46;29.50;99.90
16437;DHT22;8328;52.206;21.006;2022-08-20T08:57:13;29.60;99.90
16437;DHT22;8328;52.206;21.006;2022-08-20T08:59:41;29.70;99.90
16437;DHT22;8328;52.206;21.006;2022-08-20T09:02:20;29.50;99.90
16437;DHT22;8328;52.206;21.006;2022-08-20T09:04:47;29.60;99.90
16437;DHT22;8328;52.206;21.006;2022-08-20T09:07:16;29.70;99.90
16437;DHT22;8328;52.206;21.006;2022-08-20T09:09:44;29.80;99.90
16437;DHT22;8328;52.206;21.006;2022-08-20T09:12:17;30.20;99.90
16437;DHT22;8328;52.206;21.006;2022-08-20T09:14:45;30.40;99.90
16437;DHT22;8328;52.206;21.006;2022-08-20T09:17:13;30.70;99.90
16437;DHT22;8328;52.206;21.006;2022-08-20T09:19:39;30.80;99.90
16437;DHT22;8328;52.206;21.006;2022-08-20T09:22:14;30.60;99.90
16437;DHT22;8328;52.206;21.006;2022-08-20T09:24:41;30.50;99.90
16437;DHT22;8328;52.206;21.006;2022-08-20T09:27:08;30.50;99.90
16437;DHT22;8328;52.206;21.006;2022-08-20T09:29:34;30.50;99.90
16437;DHT22;8328;52.206;21.006;2022-08-20T09:34:37;30.50;99.90
16437;DHT22;8328;52.206;21.006;2022-08-20T09:37:04;30.50;99.90
16437;DHT22;8328;52.206;21.006;2022-08-20T09:39:30;30.70;99.90
16437;DHT22;8328;52.206;21.006;2022-08-20T09:44:43;30.80;99.90
16437;DHT22;8328;52.206;21.006;2022-08-20T09:47:10;31.00;99.90
16437;DHT22;8328;52.206;21.006;2022-08-20T09:49:36;31.10;99.90
16437;DHT22;8328;52.206;21.006;2022-08-20T09:52:03;31.30;99.90
16437;DHT22;8328;52.206;21.006;2022-08-20T09:54:31;31.30;99.90
16437;DHT22;8328;52.206;21.006;2022-08-20T09:57:01;31.30;99.90
16437;DHT22;8328;52.206;21.006;2022-08-20T09:59:28;31.30;99.90
16437;DHT22;8328;52.206;21.006;2022-08-20T10:01:55;31.30;99.90
16437;DHT22;8328;52.206;21.006;2022-08-20T10:04:20;31.30;99.90
16437;DHT22;8328;52.206;21.006;2022-08-20T10:06:46;31.20;99.90
16437;DHT22;8328;52.206;21.006;2022-08-20T10:09:13;31.20;99.90
16437;DHT22;8328;52.206;21.006;2022-08-20T10:11:39;31.20;99.90
16437;DHT22;8328;52.206;21.006;2022-08-20T10:14:05;31.20;99.40
16437;DHT22;8328;52.206;21.006;2022-08-20T10:16:34;31.30;99.40
16437;DHT22;8328;52.206;21.006;2022-08-20T10:19:00;31.40;98.80
16437;DHT22;8328;52.206;21.006;2022-08-20T10:21:26;31.50;98.40
16437;DHT22;8328;52.206;21.006;2022-08-20T10:23:52;31.60;98.10
16437;DHT22;8328;52.206;21.006;2022-08-20T10:26:18;31.70;97.60
16437;DHT22;8328;52.206;21.006;2022-08-20T10:28:44;31.80;96.70
16437;DHT22;8328;52.206;21.006;2022-08-20T10:31:11;31.80;96.40
16437;DHT22;8328;52.206;21.006;2022-08-20T10:33:37;32.00;95.90
16437;DHT22;8328;52.206;21.006;2022-08-20T10:36:14;32.00;95.00
16437;DHT22;8328;52.206;21.006;2022-08-20T10:38:41;32.30;94.60
16437;DHT22;8328;52.206;21.006;2022-08-20T10:41:07;32.30;93.60
16437;DHT22;8328;52.206;21.006;2022-08-20T10:43:33;32.30;93.10
16437;DHT22;8328;52.206;21.006;2022-08-20T10:45:59;32.30;93.00
16437;DHT22;8328;52.206;21.006;2022-08-20T10:48:26;32.30;92.90
16437;DHT22;8328;52.206;21.006;2022-08-20T10:50:51;32.30;92.60
16437;DHT22;8328;52.206;21.006;2022-08-20T10:53:18;32.50;92.30
16437;DHT22;8328;52.206;21.006;2022-08-20T10:55:44;32.60;91.60
16437;DHT22;8328;52.206;21.006;2022-08-20T10:58:10;32.70;91.60
16437;DHT22;8328;52.206;21.006;2022-08-20T11:00:38;32.80;91.20
16437;DHT22;8328;52.206;21.006;2022-08-20T11:03:04;33.00;90.90
16437;DHT22;8328;52.206;21.006;2022-08-20T11:05:30;33.20;90.30
16437;DHT22;8328;52.206;21.006;2022-08-20T11:07:56;33.40;89.20
16437;DHT22;8328;52.206;21.006;2022-08-20T11:10:26;33.50;87.70
16437;DHT22;8328;52.206;21.006;2022-08-20T11:12:53;33.00;87.20
16437;DHT22;8328;52.206;21.006;2022-08-20T11:15:19;33.20;87.40
16437;DHT22;8328;52.206;21.006;2022-08-20T11:17:45;33.80;86.10
16437;DHT22;8328;52.206;21.006;2022-08-20T11:20:13;34.30;83.20
16437;DHT22;8328;52.206;21.006;2022-08-20T11:22:39;34.90;79.30
16437;DHT22;8328;52.206;21.006;2022-08-20T11:25:05;35.10;76.30
16437;DHT22;8328;52.206;21.006;2022-08-20T11:30:07;35.40;70.70
16437;DHT22;8328;52.206;21.006;2022-08-20T11:32:33;35.50;70.40
16437;DHT22;8328;52.206;21.006;2022-08-20T11:34:59;36.20;67.30
16437;DHT22;8328;52.206;21.006;2022-08-20T11:37:26;36.90;64.30
16437;DHT22;8328;52.206;21.006;2022-08-20T11:39:52;37.10;60.20
16437;DHT22;8328;52.206;21.006;2022-08-20T11:42:17;37.50;58.60
16437;DHT22;8328;52.206;21.006;2022-08-20T11:44:43;37.70;55.80
16437;DHT22;8328;52.206;21.006;2022-08-20T11:47:25;38.00;53.80
16437;DHT22;8328;52.206;21.006;2022-08-20T11:50:07;38.40;51.40
16437;DHT22;8328;52.206;21.006;2022-08-20T11:52:33;38.60;49.40
16437;DHT22;8328;52.206;21.006;2022-08-20T11:54:59;38.80;47.70
16437;DHT22;8328;52.206;21.006;2022-08-20T11:57:30;39.00;45.20
16437;DHT22;8328;52.206;21.006;2022-08-20T11:59:58;39.50;44.50
16437;DHT22;8328;52.206;21.006;2022-08-20T12:02:25;39.70;42.90
16437;DHT22;8328;52.206;21.006;2022-08-20T12:04:52;39.80;41.70
16437;DHT22;8328;52.206;21.006;2022-08-20T12:07:21;39.70;40.70
16437;DHT22;8328;52.206;21.006;2022-08-20T12:09:48;39.80;39.80
16437;DHT22;8328;52.206;21.006;2022-08-20T12:12:14;39.70;39.20
16437;DHT22;8328;52.206;21.006;2022-08-20T12:14:40;39.80;39.40
16437;DHT22;8328;52.206;21.006;2022-08-20T12:17:16;40.10;38.60
16437;DHT22;8328;52.206;21.006;2022-08-20T12:19:44;40.10;37.90
16437;DHT22;8328;52.206;21.006;2022-08-20T12:22:10;40.30;36.90
16437;DHT22;8328;52.206;21.006;2022-08-20T12:24:39;40.60;36.00
16437;DHT22;8328;52.206;21.006;2022-08-20T12:27:09;40.50;35.30
16437;DHT22;8328;52.206;21.006;2022-08-20T12:29:37;40.50;34.90
16437;DHT22;8328;52.206;21.006;2022-08-20T12:32:04;40.50;34.50
16437;DHT22;8328;52.206;21.006;2022-08-20T12:34:35;40.40;33.90
16437;DHT22;8328;52.206;21.006;2022-08-20T12:37:03;40.40;34.10
16437;DHT22;8328;52.206;21.006;2022-08-20T12:39:30;40.60;33.80
16437;DHT22;8328;52.206;21.006;2022-08-20T12:42:00;40.80;33.10
16437;DHT22;8328;52.206;21.006;2022-08-20T12:44:29;41.20;32.20
16437;DHT22;8328;52.206;21.006;2022-08-20T12:47:14;41.40;31.70
16437;DHT22;8328;52.206;21.006;2022-08-20T12:49:44;41.80;31.40
16437;DHT22;8328;52.206;21.006;2022-08-20T12:52:12;42.30;30.00
16437;DHT22;8328;52.206;21.006;2022-08-20T12:54:38;43.00;29.20
16437;DHT22;8328;52.206;21.006;2022-08-20T12:57:04;43.80;28.40
16437;DHT22;8328;52.206;21.006;2022-08-20T12:59:31;44.50;27.30
16437;DHT22;8328;52.206;21.006;2022-08-20T13:01:57;44.70;26.00
16437;DHT22;8328;52.206;21.006;2022-08-20T13:04:23;45.00;25.20
16437;DHT22;8328;52.206;21.006;2022-08-20T13:06:49;45.40;24.40
16437;DHT22;8328;52.206;21.006;2022-08-20T13:09:16;45.80;23.40
16437;DHT22;8328;52.206;21.006;2022-08-20T13:11:42;46.00;22.60
16437;DHT22;8328;52.206;21.006;2022-08-20T13:14:08;46.30;21.70
16437;DHT22;8328;52.206;21.006;2022-08-20T13:16:34;46.70;21.00
16437;DHT22;8328;52.206;21.006;2022-08-20T13:19:00;47.30;20.00
16437;DHT22;8328;52.206;21.006;2022-08-20T13:21:26;47.30;19.50
16437;DHT22;8328;52.206;21.006;2022-08-20T13:23:52;47.60;18.90
16437;DHT22;8328;52.206;21.006;2022-08-20T13:26:18;47.80;18.30
16437;DHT22;8328;52.206;21.006;2022-08-20T13:28:44;48.00;17.90
16437;DHT22;8328;52.206;21.006;2022-08-20T13:31:10;48.40;17.50
16437;DHT22;8328;52.206;21.006;2022-08-20T13:33:35;48.20;17.10
16437;DHT22;8328;52.206;21.006;2022-08-20T13:36:01;48.40;16.70
16437;DHT22;8328;52.206;21.006;2022-08-20T13:38:27;48.40;16.40
16437;DHT22;8328;52.206;21.006;2022-08-20T13:40:53;48.50;16.40
16437;DHT22;8328;52.206;21.006;2022-08-20T13:43:19;48.40;15.90
16437;DHT22;8328;52.206;21.006;2022-08-20T13:45:45;48.40;15.70
16437;DHT22;8328;52.206;21.006;2022-08-20T13:48:10;48.30;15.80
16437;DHT22;8328;52.206;21.006;2022-08-20T13:50:36;47.40;16.00
16437;DHT22;8328;52.206;21.006;2022-08-20T13:53:02;45.20;16.90
16437;DHT22;8328;52.206;21.006;2022-08-20T13:55:28;43.10;18.70
16437;DHT22;8328;52.206;21.006;2022-08-20T13:57:56;41.70;20.10
16437;DHT22;8328;52.206;21.006;2022-08-20T14:00:26;40.40;21.60
16437;DHT22;8328;52.206;21.006;2022-08-20T14:02:52;39.40;22.90
16437;DHT22;8328;52.206;21.006;2022-08-20T14:05:18;38.40;23.90
16437;DHT22;8328;52.206;21.006;2022-08-20T14:07:44;37.70;25.00
16437;DHT22;8328;52.206;21.006;2022-08-20T14:10:23;37.40;25.80
16437;DHT22;8328;52.206;21.006;2022-08-20T14:12:50;37.20;26.20
16437;DHT22;8328;52.206;21.006;2022-08-20T14:15:17;37.20;26.50
16437;DHT22;8328;52.206;21.006;2022-08-20T14:17:52;37.00;26.40
16437;DHT22;8328;52.206;21.006;2022-08-20T14:20:22;36.90;27.10
16437;DHT22;8328;52.206;21.006;2022-08-20T14:22:48;36.90;27.10
16437;DHT22;8328;52.206;21.006;2022-08-20T14:25:16;36.60;27.20
16437;DHT22;8328;52.206;21.006;2022-08-20T14:27:43;36.50;27.20
16437;DHT22;8328;52.206;21.006;2022-08-20T14:30:14;36.20;27.20
16437;DHT22;8328;52.206;21.006;2022-08-20T14:32:41;36.00;27.30
16437;DHT22;8328;52.206;21.006;2022-08-20T14:35:07;35.70;27.70
16437;DHT22;8328;52.206;21.006;2022-08-20T14:37:36;35.50;28.50
16437;DHT22;8328;52.206;21.006;2022-08-20T14:40:06;35.20;28.80
16437;DHT22;8328;52.206;21.006;2022-08-20T14:42:34;35.10;29.30
16437;DHT22;8328;52.206;21.006;2022-08-20T14:45:01;35.10;29.70
16437;DHT22;8328;52.206;21.006;2022-08-20T14:47:31;34.90;29.80
16437;DHT22;8328;52.206;21.006;2022-08-20T14:50:02;34.90;30.00
16437;DHT22;8328;52.206;21.006;2022-08-20T14:52:30;34.80;30.20
16437;DHT22;8328;52.206;21.006;2022-08-20T14:54:57;34.60;30.70
16437;DHT22;8328;52.206;21.006;2022-08-20T14:57:23;34.30;31.30
16437;DHT22;8328;52.206;21.006;2022-08-20T14:59:51;34.40;31.60
16437;DHT22;8328;52.206;21.006;2022-08-20T15:02:17;34.20;31.70
16437;DHT22;8328;52.206;21.006;2022-08-20T15:04:44;34.10;32.40
16437;DHT22;8328;52.206;21.006;2022-08-20T15:07:28;34.10;32.70
16437;DHT22;8328;52.206;21.006;2022-08-20T15:09:55;34.00;32.90
16437;DHT22;8328;52.206;21.006;2022-08-20T15:12:22;34.00;32.80
16437;DHT22;8328;52.206;21.006;2022-08-20T15:14:49;33.80;32.70
16437;DHT22;8328;52.206;21.006;2022-08-20T15:17:25;33.90;33.20
16437;DHT22;8328;52.206;21.006;2022-08-20T15:19:52;34.00;32.70
16437;DHT22;8328;52.206;21.006;2022-08-20T15:22:22;34.10;32.60
16437;DHT22;8328;52.206;21.006;2022-08-20T15:24:49;34.30;32.90
16437;DHT22;8328;52.206;21.006;2022-08-20T15:27:23;34.30;33.10
16437;DHT22;8328;52.206;21.006;2022-08-20T15:29:50;34.20;33.60
16437;DHT22;8328;52.206;21.006;2022-08-20T15:32:17;34.10;33.80
16437;DHT22;8328;52.206;21.006;2022-08-20T15:34:43;34.00;34.20
16437;DHT22;8328;52.206;21.006;2022-08-20T15:37:10;33.80;34.20
16437;DHT22;8328;52.206;21.006;2022-08-20T15:39:37;33.70;34.50
16437;DHT22;8328;52.206;21.006;2022-08-20T15:42:05;33.60;34.90
16437;DHT22;8328;52.206;21.006;2022-08-20T15:44:31;33.50;35.20
16437;DHT22;8328;52.206;21.006;2022-08-20T15:47:31;33.40;35.50
16437;DHT22;8328;52.206;21.006;2022-08-20T15:50:06;33.30;35.80
16437;DHT22;8328;52.206;21.006;2022-08-20T15:52:37;33.10;36.10
16437;DHT22;8328;52.206;21.006;2022-08-20T15:55:03;33.00;36.60